Terminal Aerodrome Forecast
Issued by NWS Cleveland, OH

Home | Current Version | Previous Version | Text Only | Print | Product List | Glossary On
Versions: 1 2 3 4 5 6 7 8 9 10 11 12 13 14 15 16 17 18
000
FTUS41 KCLE 240522
TAFERI
TAF
KERI 240522Z 2406/2506 26008KT P6SM BKN040
      TEMPO 2406/2408 5SM -SHRA BR BKN025
     FM240800 26008KT P6SM SCT060
     FM241600 26010G18KT P6SM SCT050
     FM242300 25008KT P6SM BKN050=

USA.gov is the U.S. government's official web portal to all federal, state and local government web resources and services.